createdAt,value
2022-10-19T00:01:07.539Z,98.45
2022-10-19T00:03:36.059Z,98.23
2022-10-19T00:06:18.467Z,98.31
2022-10-19T00:08:45.753Z,98.01
2022-10-19T00:11:13.432Z,97.47
2022-10-19T00:13:40.758Z,96.28
2022-10-19T00:16:11.607Z,96.26
2022-10-19T00:18:39.131Z,95.44
2022-10-19T00:21:07.584Z,95.90
2022-10-19T00:23:34.889Z,96.31
2022-10-19T00:26:02.240Z,95.49
2022-10-19T00:28:29.523Z,95.65
2022-10-19T00:30:57.135Z,95.79
2022-10-19T00:33:24.552Z,95.49
2022-10-19T00:35:52.943Z,94.80
2022-10-19T00:38:21.630Z,94.35
2022-10-19T00:40:49.483Z,94.78
2022-10-19T00:43:22.037Z,95.29
2022-10-19T00:45:49.445Z,95.38
2022-10-19T00:48:25.711Z,96.06
2022-10-19T00:50:54.543Z,95.84
2022-10-19T00:53:21.941Z,95.17
2022-10-19T00:55:49.253Z,95.75
2022-10-19T00:58:16.518Z,95.37
2022-10-19T01:00:43.727Z,95.63
2022-10-19T01:03:11.957Z,95.52
2022-10-19T01:05:39.194Z,94.77
2022-10-19T01:08:07.547Z,94.79
2022-10-19T01:11:06.456Z,95.52
2022-10-19T01:13:56.211Z,95.46
2022-10-19T01:16:49.836Z,94.41
2022-10-19T01:19:40.243Z,95.02
2022-10-19T01:22:36.326Z,95.28
2022-10-19T01:25:36.495Z,95.29
2022-10-19T01:28:11.642Z,94.34
2022-10-19T01:31:03.336Z,94.73
2022-10-19T01:33:38.428Z,94.32
2022-10-19T01:36:16.708Z,94.11
2022-10-19T01:38:57.835Z,93.71
2022-10-19T01:41:35.366Z,94.23
2022-10-19T01:44:14.349Z,93.66
2022-10-19T01:46:45.120Z,93.93
2022-10-19T01:49:16.511Z,93.83
2022-10-19T01:51:47.767Z,94.16
2022-10-19T01:54:16.917Z,93.85
2022-10-19T01:56:45.839Z,93.89
2022-10-19T01:59:13.370Z,94.15
2022-10-19T02:01:43.969Z,93.83
2022-10-19T02:04:12.598Z,94.36
2022-10-19T02:06:39.993Z,94.98
2022-10-19T02:09:07.342Z,95.46
2022-10-19T02:11:35.535Z,95.03
2022-10-19T02:14:07.604Z,95.39
2022-10-19T02:16:39.937Z,94.93
2022-10-19T02:19:08.670Z,93.96
2022-10-19T02:21:35.925Z,94.76
2022-10-19T02:24:03.058Z,93.99
2022-10-19T02:26:30.321Z,93.54
2022-10-19T02:28:57.534Z,94.05
2022-10-19T02:31:25.083Z,94.86
2022-10-19T02:33:52.442Z,93.39
2022-10-19T02:36:19.595Z,93.04
2022-10-19T02:38:46.782Z,93.58
2022-10-19T02:41:28.508Z,93.96
2022-10-19T02:44:01.400Z,92.85
2022-10-19T02:46:42.705Z,92.58
2022-10-19T02:49:11.042Z,91.46
2022-10-19T02:51:40.771Z,92.43
2022-10-19T02:54:09.391Z,92.53
2022-10-19T02:56:36.601Z,92.58
2022-10-19T02:59:04.375Z,93.54
2022-10-19T03:01:31.546Z,92.32
2022-10-19T03:03:58.771Z,92.47
2022-10-19T03:06:25.941Z,91.42
2022-10-19T03:08:53.086Z,92.47
2022-10-19T03:11:20.267Z,92.80
2022-10-19T03:16:19.509Z,92.56
2022-10-19T03:18:49.095Z,92.74
2022-10-19T03:21:16.312Z,92.03
2022-10-19T03:23:43.439Z,92.57
2022-10-19T03:26:14.398Z,93.03
2022-10-19T03:28:42.427Z,92.83
2022-10-19T03:31:09.869Z,93.17
2022-10-19T03:33:37.012Z,92.39
2022-10-19T03:36:34.574Z,92.92
2022-10-19T03:39:04.675Z,93.38
2022-10-19T03:41:34.207Z,94.06
2022-10-19T03:44:01.462Z,93.35
2022-10-19T03:46:28.667Z,93.01
2022-10-19T03:48:55.802Z,92.61
2022-10-19T03:51:25.787Z,93.00
2022-10-19T03:53:54.487Z,93.41
2022-10-19T03:56:23.576Z,93.87
2022-10-19T03:58:51.851Z,93.43
2022-10-19T04:01:21.495Z,93.26
2022-10-19T04:03:52.822Z,92.49
2022-10-19T04:06:22.053Z,93.43
2022-10-19T04:08:50.351Z,92.62
2022-10-19T04:11:18.828Z,91.84
2022-10-19T04:13:49.407Z,91.45
2022-10-19T04:16:17.080Z,92.17
2022-10-19T04:18:44.241Z,92.51
2022-10-19T04:21:22.946Z,93.20
2022-10-19T04:23:51.334Z,92.51
2022-10-19T04:26:19.064Z,92.44
2022-10-19T04:28:46.328Z,93.39
2022-10-19T04:31:13.845Z,93.33
2022-10-19T04:33:41.657Z,93.27
2022-10-19T04:36:12.804Z,93.33
2022-10-19T04:38:40.052Z,93.74
2022-10-19T04:41:10.007Z,93.38
2022-10-19T04:43:37.356Z,94.04
2022-10-19T04:46:06.149Z,93.21
2022-10-19T04:48:35.224Z,93.27
2022-10-19T04:51:02.769Z,93.10
2022-10-19T04:53:30.087Z,93.94
2022-10-19T04:55:57.246Z,93.86
2022-10-19T04:58:24.688Z,92.93
2022-10-19T05:00:51.894Z,92.77
2022-10-19T05:03:19.105Z,92.72
2022-10-19T05:05:46.256Z,92.29
2022-10-19T05:08:13.405Z,92.92
2022-10-19T05:10:44.213Z,93.43
2022-10-19T05:13:14.161Z,92.51
2022-10-19T05:15:41.334Z,92.63
2022-10-19T05:18:08.496Z,91.94
2022-10-19T05:20:35.648Z,92.24
2022-10-19T05:23:06.298Z,92.05
2022-10-19T05:25:34.582Z,92.98
2022-10-19T05:28:01.719Z,92.87
2022-10-19T05:30:28.871Z,92.07
2022-10-19T05:32:56.024Z,92.53
2022-10-19T05:35:23.273Z,91.46
2022-10-19T05:37:55.215Z,91.21
2022-10-19T05:40:22.376Z,91.63
2022-10-19T05:42:49.511Z,90.72
2022-10-19T05:45:16.751Z,91.20
2022-10-19T05:47:43.960Z,91.20
2022-10-19T05:50:11.153Z,90.66
2022-10-19T05:52:38.305Z,91.57
2022-10-19T05:55:05.913Z,91.26
2022-10-19T05:57:33.776Z,91.40
2022-10-19T06:00:01.116Z,91.95
2022-10-19T06:02:28.294Z,91.61
2022-10-19T06:04:55.429Z,91.46
2022-10-19T06:07:22.649Z,91.42
2022-10-19T06:09:49.800Z,92.42
2022-10-19T06:12:22.861Z,93.29
2022-10-19T06:14:52.170Z,93.55
2022-10-19T06:17:19.385Z,93.64
2022-10-19T06:19:46.528Z,91.95
2022-10-19T06:22:13.688Z,90.99
2022-10-19T06:24:40.851Z,90.66
2022-10-19T06:27:08.167Z,90.85
2022-10-19T06:29:36.067Z,91.81
2022-10-19T06:32:03.215Z,91.53
2022-10-19T06:34:30.488Z,90.38
2022-10-19T06:36:57.700Z,90.24
2022-10-19T06:39:24.887Z,91.01
2022-10-19T06:41:52.199Z,90.60
2022-10-19T06:44:19.567Z,90.77
2022-10-19T06:46:46.738Z,90.69
2022-10-19T06:49:14.568Z,90.92
2022-10-19T06:51:41.928Z,90.99
2022-10-19T06:54:09.066Z,90.02
2022-10-19T06:56:36.352Z,90.53
2022-10-19T06:59:03.665Z,90.89
2022-10-19T07:01:30.999Z,90.42
2022-10-19T07:03:58.177Z,89.62
2022-10-19T07:06:27.791Z,88.99
2022-10-19T07:08:55.027Z,88.52
2022-10-19T07:11:22.749Z,88.60
2022-10-19T07:13:50.204Z,88.53
2022-10-19T07:16:21.329Z,88.95
2022-10-19T07:18:50.084Z,89.23
2022-10-19T07:21:18.339Z,88.34
2022-10-19T07:23:47.368Z,89.26
2022-10-19T07:26:17.197Z,90.07
2022-10-19T07:28:46.955Z,89.72
2022-10-19T07:31:17.900Z,89.95
2022-10-19T07:33:45.383Z,90.14
2022-10-19T07:36:13.872Z,90.54
2022-10-19T07:38:41.385Z,89.79
2022-10-19T07:41:12.675Z,87.86
2022-10-19T07:43:40.426Z,87.74
2022-10-19T07:46:10.486Z,87.87
2022-10-19T07:48:37.889Z,85.76
2022-10-19T07:51:07.043Z,84.70
2022-10-19T07:53:34.684Z,86.14
2022-10-19T07:56:07.056Z,86.33
2022-10-19T07:58:34.523Z,86.53
2022-10-19T08:01:03.361Z,86.07
2022-10-19T08:04:14.329Z,86.19
2022-10-19T08:06:19.183Z,87.29
2022-10-19T08:08:47.794Z,87.05
2022-10-19T08:11:35.646Z,87.01
2022-10-19T08:14:03.586Z,84.31
2022-10-19T08:16:42.064Z,80.03
2022-10-19T08:19:12.536Z,84.08
2022-10-19T08:21:41.489Z,82.15
2022-10-19T08:24:09.029Z,82.63
2022-10-19T08:26:38.225Z,83.60
2022-10-19T08:29:13.439Z,81.56
2022-10-19T08:31:40.994Z,78.54
2022-10-19T08:34:12.012Z,78.67
2022-10-19T08:36:39.433Z,78.16
2022-10-19T08:39:08.778Z,79.34
2022-10-19T08:44:42.817Z,79.76
2022-10-19T08:47:47.802Z,79.20
2022-10-19T08:50:23.650Z,81.52
2022-10-19T08:52:55.346Z,78.06
2022-10-19T08:55:39.180Z,76.73
2022-10-19T08:58:32.314Z,78.22
2022-10-19T09:01:11.487Z,77.05
2022-10-19T09:03:54.805Z,78.71
2022-10-19T09:06:50.306Z,79.09
2022-10-19T09:09:19.486Z,76.18
2022-10-19T09:11:53.090Z,76.81
2022-10-19T09:14:38.758Z,77.52
2022-10-19T09:17:17.136Z,76.05
2022-10-19T09:19:44.402Z,75.93
2022-10-19T09:22:28.444Z,77.64
2022-10-19T09:25:00.534Z,78.49
2022-10-19T09:27:39.251Z,76.59
2022-10-19T09:30:21.240Z,76.83
2022-10-19T09:32:50.651Z,75.88
2022-10-19T09:35:34.191Z,74.86
2022-10-19T09:38:01.597Z,75.09
2022-10-19T09:40:30.681Z,74.91
2022-10-19T09:42:59.146Z,76.27
2022-10-19T09:46:09.622Z,77.79
2022-10-19T09:48:51.956Z,77.64
2022-10-19T09:51:19.751Z,76.64
2022-10-19T09:53:51.502Z,76.92
2022-10-19T09:56:21.236Z,74.51
2022-10-19T09:58:50.552Z,76.12
2022-10-19T10:01:41.715Z,75.46
2022-10-19T10:04:16.061Z,74.58
2022-10-19T10:06:44.823Z,73.70
2022-10-19T10:09:21.418Z,78.37
2022-10-19T10:11:50.682Z,73.41
2022-10-19T10:14:22.637Z,71.65
2022-10-19T10:16:56.170Z,74.30
2022-10-19T10:19:28.659Z,79.35
2022-10-19T10:21:57.825Z,73.59
2022-10-19T10:24:27.246Z,71.44
2022-10-19T10:27:05.773Z,75.21
2022-10-19T10:29:35.141Z,73.41
2022-10-19T10:32:20.588Z,72.32
2022-10-19T10:34:53.841Z,69.68
2022-10-19T10:37:41.531Z,70.36
2022-10-19T10:40:23.950Z,69.72
2022-10-19T10:42:53.625Z,71.45
2022-10-19T10:45:29.551Z,71.47
2022-10-19T10:47:57.870Z,74.73
2022-10-19T10:50:34.592Z,71.29
2022-10-19T10:53:30.926Z,72.91
2022-10-19T10:55:58.329Z,71.91
2022-10-19T10:58:47.864Z,72.33
2022-10-19T11:01:23.136Z,73.57
2022-10-19T11:04:14.413Z,72.20
2022-10-19T11:06:51.799Z,71.84
2022-10-19T11:09:36.194Z,72.05
2022-10-19T11:12:05.662Z,69.59
2022-10-19T11:14:42.755Z,70.67
2022-10-19T11:17:18.553Z,67.11
2022-10-19T11:19:46.381Z,65.92
2022-10-19T11:22:32.456Z,67.29
2022-10-19T11:25:19.591Z,67.10
2022-10-19T11:28:20.657Z,67.36
2022-10-19T11:31:06.896Z,67.33
2022-10-19T11:34:00.281Z,70.90
2022-10-19T11:36:51.741Z,69.27
2022-10-19T11:40:02.429Z,74.23
2022-10-19T11:42:53.645Z,69.67
2022-10-19T11:45:42.726Z,69.29
2022-10-19T11:48:54.946Z,66.13
2022-10-19T11:51:39.418Z,64.30
2022-10-19T11:54:29.507Z,67.29
2022-10-19T11:57:16.422Z,64.45
2022-10-19T12:00:13.898Z,65.03
2022-10-19T12:03:07.798Z,64.58
2022-10-19T12:05:54.429Z,68.08
2022-10-19T12:08:58.080Z,65.86
2022-10-19T12:11:47.441Z,65.62
2022-10-19T12:14:26.785Z,64.03
2022-10-19T12:17:00.173Z,64.77
2022-10-19T12:19:36.054Z,64.96
2022-10-19T12:22:04.791Z,64.86
2022-10-19T12:24:33.486Z,63.49
2022-10-19T12:27:01.429Z,64.32
2022-10-19T12:29:34.412Z,65.80
2022-10-19T12:32:03.259Z,65.28
2022-10-19T12:34:33.484Z,64.75
2022-10-19T12:37:12.196Z,64.94
2022-10-19T12:40:17.191Z,64.95
2022-10-19T12:42:53.012Z,64.91
2022-10-19T12:45:30.947Z,67.53
2022-10-19T12:48:14.268Z,68.89
2022-10-19T12:50:50.867Z,62.14
2022-10-19T12:53:31.541Z,62.47
2022-10-19T12:56:20.158Z,63.08
2022-10-19T12:58:54.628Z,64.14
2022-10-19T13:01:33.053Z,60.95
2022-10-19T13:04:12.214Z,60.13
2022-10-19T13:06:52.099Z,61.29
2022-10-19T13:09:22.923Z,62.05
2022-10-19T13:12:19.383Z,60.50
2022-10-19T13:15:02.124Z,61.51
2022-10-19T13:17:40.648Z,62.25
2022-10-19T13:20:16.641Z,63.23
2022-10-19T13:23:00.455Z,62.91
2022-10-19T13:25:29.463Z,61.66
2022-10-19T13:28:06.969Z,63.03
2022-10-19T13:30:38.214Z,66.47
2022-10-19T13:33:28.991Z,64.50
2022-10-19T13:35:59.189Z,63.39
2022-10-19T13:38:33.471Z,65.20
2022-10-19T13:41:19.060Z,70.79
2022-10-19T13:43:55.404Z,68.87
2022-10-19T13:46:32.793Z,71.45
2022-10-19T13:49:12.027Z,72.13
2022-10-19T13:51:49.280Z,70.98
2022-10-19T13:54:35.770Z,69.32
2022-10-19T13:57:47.801Z,67.59
2022-10-19T14:00:22.185Z,68.12
2022-10-19T14:03:05.520Z,70.45
2022-10-19T14:05:56.979Z,71.57
2022-10-19T14:08:53.232Z,67.65
2022-10-19T14:11:33.260Z,70.65
2022-10-19T14:14:13.446Z,70.13
2022-10-19T14:19:48.481Z,72.63
2022-10-19T14:22:34.014Z,69.71
2022-10-19T14:25:05.153Z,71.20
2022-10-19T14:27:33.255Z,66.94
2022-10-19T14:30:03.812Z,68.30
2022-10-19T14:32:33.840Z,70.78
2022-10-19T14:35:06.087Z,69.97
2022-10-19T14:37:33.687Z,68.58
2022-10-19T14:40:29.384Z,69.81
2022-10-19T14:42:57.663Z,72.00
2022-10-19T14:45:28.456Z,71.80
2022-10-19T14:48:01.076Z,69.63
2022-10-19T14:50:39.306Z,71.39
2022-10-19T14:53:34.350Z,65.77
2022-10-19T14:56:37.838Z,65.54
2022-10-19T14:59:20.385Z,69.69
2022-10-19T15:01:56.125Z,70.13
2022-10-19T15:04:27.684Z,66.26
2022-10-19T15:06:55.925Z,69.19
2022-10-19T15:09:47.709Z,67.06
2022-10-19T15:12:21.592Z,66.41
2022-10-19T15:14:49.189Z,66.75
2022-10-19T15:17:31.061Z,66.44
2022-10-19T15:20:01.135Z,66.68
2022-10-19T15:22:32.287Z,68.37
2022-10-19T15:25:02.316Z,69.57
2022-10-19T15:27:31.189Z,71.26
2022-10-19T15:30:27.068Z,72.40
2022-10-19T15:33:11.433Z,72.18
2022-10-19T15:35:40.716Z,69.48
2022-10-19T15:38:10.293Z,70.38
2022-10-19T15:40:40.132Z,71.69
2022-10-19T15:43:34.765Z,73.06
2022-10-19T15:46:06.816Z,70.98
2022-10-19T15:49:04.448Z,69.60
2022-10-19T15:51:34.560Z,69.70
2022-10-19T15:54:06.828Z,70.02
2022-10-19T15:56:37.739Z,71.96
2022-10-19T15:59:10.165Z,72.76
2022-10-19T16:01:37.369Z,72.80
2022-10-19T16:04:04.748Z,73.74
2022-10-19T16:06:34.240Z,73.51
2022-10-19T16:09:02.439Z,75.20
2022-10-19T16:11:30.284Z,75.29
2022-10-19T16:13:57.752Z,76.27
2022-10-19T16:16:30.246Z,76.23
2022-10-19T16:18:58.111Z,76.73
2022-10-19T16:21:31.521Z,77.01
2022-10-19T16:23:58.701Z,78.76
2022-10-19T16:26:26.514Z,78.65
2022-10-19T16:28:55.030Z,78.42
2022-10-19T16:31:22.649Z,78.96
2022-10-19T16:33:50.041Z,79.97
2022-10-19T16:36:20.195Z,79.42
2022-10-19T16:38:47.703Z,80.62
2022-10-19T16:41:14.944Z,81.11
2022-10-19T16:43:42.138Z,81.48
2022-10-19T16:46:09.579Z,81.45
2022-10-19T16:48:37.864Z,82.53
2022-10-19T16:51:07.954Z,82.40
2022-10-19T16:53:36.484Z,81.65
2022-10-19T16:56:11.181Z,83.35
2022-10-19T16:58:39.808Z,82.62
2022-10-19T17:01:12.356Z,83.78
2022-10-19T17:03:39.719Z,83.98
2022-10-19T17:06:08.155Z,85.37
2022-10-19T17:08:53.047Z,86.03
2022-10-19T17:11:25.500Z,87.21
2022-10-19T17:13:54.856Z,87.57
2022-10-19T17:16:22.152Z,87.11
2022-10-19T17:18:49.517Z,86.66
2022-10-19T17:21:19.947Z,86.68
2022-10-19T17:23:47.564Z,86.22
2022-10-19T17:26:14.843Z,87.29
2022-10-19T17:28:43.346Z,89.52
2022-10-19T17:31:13.073Z,89.15
2022-10-19T17:33:41.348Z,89.58
2022-10-19T17:36:11.325Z,90.37
2022-10-19T17:38:39.316Z,91.11
2022-10-19T17:41:13.770Z,91.30
2022-10-19T17:43:42.585Z,91.12
2022-10-19T17:46:11.255Z,91.36
2022-10-19T17:48:39.480Z,91.27
2022-10-19T17:51:13.786Z,91.39
2022-10-19T17:53:40.947Z,91.90
2022-10-19T17:56:08.622Z,92.03
2022-10-19T17:58:39.154Z,92.22
2022-10-19T18:01:07.877Z,91.93
2022-10-19T18:03:36.195Z,92.18
2022-10-19T18:06:10.808Z,92.11
2022-10-19T18:08:43.953Z,92.12
2022-10-19T18:11:13.635Z,92.07
2022-10-19T18:13:41.830Z,92.41
2022-10-19T18:16:15.435Z,92.69
2022-10-19T18:18:45.740Z,93.55
2022-10-19T18:21:14.704Z,93.75
2022-10-19T18:23:42.051Z,93.95
2022-10-19T18:26:12.286Z,93.70
2022-10-19T18:28:39.797Z,94.09
2022-10-19T18:31:15.389Z,95.02
2022-10-19T18:33:44.592Z,95.12
2022-10-19T18:36:11.983Z,95.17
2022-10-19T18:38:39.668Z,95.48
2022-10-19T18:43:49.970Z,94.88
2022-10-19T18:46:19.510Z,94.78
2022-10-19T18:48:46.876Z,94.83
2022-10-19T18:51:15.478Z,95.46
2022-10-19T18:53:43.404Z,95.99
2022-10-19T18:56:12.721Z,95.95
2022-10-19T18:58:39.831Z,96.15
2022-10-19T19:01:10.178Z,96.16
2022-10-19T19:03:38.881Z,96.18
2022-10-19T19:06:08.991Z,96.89
2022-10-19T19:08:36.234Z,97.36
2022-10-19T19:11:11.294Z,97.53
2022-10-19T19:13:39.148Z,96.93
2022-10-19T19:16:07.313Z,97.14
2022-10-19T19:18:34.903Z,97.63
2022-10-19T19:21:03.403Z,97.14
2022-10-19T19:23:31.021Z,97.50
2022-10-19T19:25:58.269Z,97.49
2022-10-19T19:28:25.669Z,97.03
2022-10-19T19:30:52.885Z,97.53
2022-10-19T19:33:20.135Z,97.15
2022-10-19T19:35:48.165Z,96.92
2022-10-19T19:38:16.527Z,97.27
2022-10-19T19:40:45.380Z,97.42
2022-10-19T19:43:14.367Z,97.59
2022-10-19T19:45:42.234Z,98.04
2022-10-19T19:48:10.617Z,97.90
2022-10-19T19:50:38.532Z,97.95
2022-10-19T19:53:05.879Z,97.63
2022-10-19T19:55:38.862Z,98.32
2022-10-19T19:58:06.757Z,98.29
2022-10-19T20:00:33.986Z,97.77
2022-10-19T20:03:01.219Z,97.89
2022-10-19T20:05:28.530Z,97.99
2022-10-19T20:07:55.901Z,98.65
2022-10-19T20:10:23.106Z,99.10
2022-10-19T20:12:50.323Z,98.88
2022-10-19T20:15:18.383Z,98.67
2022-10-19T20:17:45.783Z,98.73
2022-10-19T20:20:14.547Z,99.17
2022-10-19T20:22:46.635Z,98.70
2022-10-19T20:25:17.429Z,99.45
2022-10-19T20:27:44.635Z,99.61
2022-10-19T20:30:26.919Z,99.52
2022-10-19T20:32:54.997Z,99.57
2022-10-19T20:35:22.216Z,99.14
2022-10-19T20:37:52.860Z,99.37
2022-10-19T20:40:20.394Z,99.64
2022-10-19T20:42:48.321Z,100.00
2022-10-19T20:45:15.625Z,99.77
2022-10-19T20:47:43.215Z,99.57
2022-10-19T20:50:10.502Z,98.99
2022-10-19T20:52:38.578Z,98.28
2022-10-19T20:55:06.804Z,98.88
2022-10-19T20:57:34.041Z,99.11
2022-10-19T21:00:01.194Z,98.55
2022-10-19T21:02:28.446Z,97.88
2022-10-19T21:04:55.614Z,98.23
2022-10-19T21:07:22.838Z,98.15
2022-10-19T21:09:50.226Z,98.43
2022-10-19T21:12:17.394Z,97.92
2022-10-19T21:14:44.538Z,98.25
2022-10-19T21:17:11.743Z,97.64
2022-10-19T21:19:40.382Z,97.98
2022-10-19T21:22:10.875Z,98.42
2022-10-19T21:24:43.908Z,99.01
2022-10-19T21:27:12.069Z,98.81
2022-10-19T21:29:45.938Z,98.37
2022-10-19T21:32:15.272Z,98.54
2022-10-19T21:34:42.935Z,99.31
2022-10-19T21:37:20.609Z,98.66
2022-10-19T21:39:48.024Z,99.09
2022-10-19T21:42:15.275Z,99.02
2022-10-19T21:44:42.419Z,99.69
2022-10-19T21:47:09.637Z,100.00
2022-10-19T21:49:36.771Z,99.91
2022-10-19T21:52:04.258Z,98.93
2022-10-19T21:54:31.927Z,99.16
2022-10-19T21:57:01.401Z,99.23
2022-10-19T21:59:28.660Z,99.83
2022-10-19T22:01:56.418Z,98.75
2022-10-19T22:04:24.917Z,99.24
2022-10-19T22:06:52.209Z,99.65
2022-10-19T22:09:21.233Z,99.43
2022-10-19T22:11:49.133Z,99.80
2022-10-19T22:14:17.245Z,100.00
2022-10-19T22:16:46.976Z,100.00
2022-10-19T22:19:24.650Z,100.00
2022-10-19T22:21:52.585Z,100.00
2022-10-19T22:24:32.220Z,100.00
2022-10-19T22:27:00.527Z,99.62
2022-10-19T22:29:27.663Z,99.71
2022-10-19T22:31:54.840Z,100.00
2022-10-19T22:34:22.238Z,99.42
2022-10-19T22:36:49.419Z,99.42
2022-10-19T22:39:16.777Z,99.24
2022-10-19T22:41:43.981Z,99.25
2022-10-19T22:44:11.181Z,98.53
2022-10-19T22:46:38.685Z,99.39
2022-10-19T22:49:06.030Z,98.86
2022-10-19T22:51:33.240Z,98.90
2022-10-19T22:54:00.503Z,99.44
2022-10-19T22:56:28.002Z,99.40
2022-10-19T22:59:01.943Z,98.88
2022-10-19T23:01:29.388Z,98.79
2022-10-19T23:03:56.758Z,99.02
2022-10-19T23:06:24.147Z,99.83
2022-10-19T23:08:51.376Z,100.00
2022-10-19T23:11:18.599Z,99.29
2022-10-19T23:13:45.777Z,99.65
2022-10-19T23:16:13.170Z,99.75
2022-10-19T23:18:41.261Z,100.00
2022-10-19T23:21:11.342Z,100.00
2022-10-19T23:23:39.288Z,99.45
2022-10-19T23:26:17.560Z,99.92
2022-10-19T23:28:47.046Z,99.75
2022-10-19T23:31:15.831Z,99.49
2022-10-19T23:33:43.606Z,99.10
2022-10-19T23:36:16.712Z,99.44
2022-10-19T23:38:45.008Z,99.25
2022-10-19T23:41:12.522Z,99.56
2022-10-19T23:43:40.269Z,99.51
2022-10-19T23:46:07.722Z,99.82
2022-10-19T23:48:35.507Z,99.93
2022-10-19T23:51:06.136Z,99.43
2022-10-19T23:53:37.049Z,100.00
2022-10-19T23:56:12.629Z,99.27
2022-10-19T23:58:39.779Z,99.99
